sensor_id;sensor_type;location;lat;lon;timestamp;pressure;altitude;pressure_sealevel;temperature;humidity
16821;BME280;8527;49.740;6.604;2023-01-29T00:00:23;101092.00;;;0.19;78.05
16821;BME280;8527;49.740;6.604;2023-01-29T00:05:21;101091.41;;;0.12;77.68
16821;BME280;8527;49.740;6.604;2023-01-29T00:10:27;101090.78;;;0.26;78.28
16821;BME280;8527;49.740;6.604;2023-01-29T00:15:26;101098.91;;;0.20;77.53
16821;BME280;8527;49.740;6.604;2023-01-29T00:20:24;101098.06;;;0.20;78.18
16821;BME280;8527;49.740;6.604;2023-01-29T00:25:25;101105.06;;;0.19;77.04
16821;BME280;8527;49.740;6.604;2023-01-29T00:30:24;101114.13;;;0.30;77.88
16821;BME280;8527;49.740;6.604;2023-01-29T00:35:22;101119.56;;;0.25;77.68
16821;BME280;8527;49.740;6.604;2023-01-29T00:40:20;101127.03;;;0.13;77.89
16821;BME280;8527;49.740;6.604;2023-01-29T00:45:22;101121.50;;;0.01;78.01
16821;BME280;8527;49.740;6.604;2023-01-29T00:50:26;101118.53;;;0.08;77.50
16821;BME280;8527;49.740;6.604;2023-01-29T00:55:24;101124.16;;;-0.01;77.42
16821;BME280;8527;49.740;6.604;2023-01-29T01:00:25;101122.66;;;-0.07;78.06
16821;BME280;8527;49.740;6.604;2023-01-29T01:05:24;101111.38;;;-0.07;78.01
16821;BME280;8527;49.740;6.604;2023-01-29T01:10:26;101113.06;;;-0.06;78.04
16821;BME280;8527;49.740;6.604;2023-01-29T01:15:28;101105.13;;;-0.03;77.46
16821;BME280;8527;49.740;6.604;2023-01-29T01:20:29;101093.59;;;-0.18;77.02
16821;BME280;8527;49.740;6.604;2023-01-29T01:25:28;101084.97;;;0.01;77.82
16821;BME280;8527;49.740;6.604;2023-01-29T01:30:31;101082.13;;;-0.14;77.58
16821;BME280;8527;49.740;6.604;2023-01-29T01:35:29;101084.31;;;-0.05;77.83
16821;BME280;8527;49.740;6.604;2023-01-29T01:40:27;101079.38;;;-0.11;77.68
16821;BME280;8527;49.740;6.604;2023-01-29T01:45:27;101069.38;;;-0.01;77.51
16821;BME280;8527;49.740;6.604;2023-01-29T01:50:34;101064.97;;;0.01;77.82
16821;BME280;8527;49.740;6.604;2023-01-29T01:55:37;101059.06;;;-0.04;77.42
16821;BME280;8527;49.740;6.604;2023-01-29T02:00:41;101059.59;;;-0.17;77.17
16821;BME280;8527;49.740;6.604;2023-01-29T02:05:42;101056.03;;;-0.35;77.63
16821;BME280;8527;49.740;6.604;2023-01-29T02:10:54;101044.38;;;-0.47;77.51
16821;BME280;8527;49.740;6.604;2023-01-29T02:15:52;101036.66;;;-0.29;77.51
16821;BME280;8527;49.740;6.604;2023-01-29T02:21:06;101041.44;;;-0.39;77.62
16821;BME280;8527;49.740;6.604;2023-01-29T02:26:15;101052.66;;;-0.37;78.32
16821;BME280;8527;49.740;6.604;2023-01-29T02:31:36;101058.06;;;-0.21;78.61
16821;BME280;8527;49.740;6.604;2023-01-29T02:36:42;101064.63;;;-0.12;79.63
16821;BME280;8527;49.740;6.604;2023-01-29T02:41:46;101076.75;;;-0.11;79.47
16821;BME280;8527;49.740;6.604;2023-01-29T02:46:56;101085.34;;;-0.09;78.63
16821;BME280;8527;49.740;6.604;2023-01-29T02:52:01;101072.31;;;-0.09;78.47
16821;BME280;8527;49.740;6.604;2023-01-29T02:57:06;101069.66;;;-0.07;78.42
16821;BME280;8527;49.740;6.604;2023-01-29T03:02:19;101068.78;;;-0.08;78.80
16821;BME280;8527;49.740;6.604;2023-01-29T03:07:26;101065.41;;;-0.10;78.53
16821;BME280;8527;49.740;6.604;2023-01-29T03:12:39;101053.56;;;-0.17;78.88
16821;BME280;8527;49.740;6.604;2023-01-29T03:17:46;101055.25;;;-0.16;78.75
16821;BME280;8527;49.740;6.604;2023-01-29T03:22:48;101039.38;;;-0.31;79.18
16821;BME280;8527;49.740;6.604;2023-01-29T03:27:51;101041.81;;;-0.27;79.03
16821;BME280;8527;49.740;6.604;2023-01-29T03:33:08;101053.94;;;-0.26;79.27
16821;BME280;8527;49.740;6.604;2023-01-29T03:38:10;101070.44;;;-0.26;79.28
16821;BME280;8527;49.740;6.604;2023-01-29T03:43:12;101059.41;;;-0.33;79.31
16821;BME280;8527;49.740;6.604;2023-01-29T03:48:23;101073.03;;;-0.26;79.06
16821;BME280;8527;49.740;6.604;2023-01-29T03:53:30;101063.13;;;-0.38;79.11
16821;BME280;8527;49.740;6.604;2023-01-29T03:58:36;101062.09;;;-0.34;79.55
16821;BME280;8527;49.740;6.604;2023-01-29T04:03:41;101062.75;;;-0.29;79.47
16821;BME280;8527;49.740;6.604;2023-01-29T04:08:50;101061.56;;;-0.43;79.15
16821;BME280;8527;49.740;6.604;2023-01-29T04:13:51;101050.81;;;-0.55;79.77
16821;BME280;8527;49.740;6.604;2023-01-29T04:18:53;101061.75;;;-0.47;79.91
16821;BME280;8527;49.740;6.604;2023-01-29T04:23:55;101072.13;;;-0.46;79.83
16821;BME280;8527;49.740;6.604;2023-01-29T04:29:03;101064.97;;;-0.61;79.70
16821;BME280;8527;49.740;6.604;2023-01-29T04:34:22;101082.28;;;-0.60;80.23
16821;BME280;8527;49.740;6.604;2023-01-29T04:39:24;101080.91;;;-0.48;80.00
16821;BME280;8527;49.740;6.604;2023-01-29T04:44:36;101071.09;;;-0.62;79.92
16821;BME280;8527;49.740;6.604;2023-01-29T04:49:44;101078.31;;;-0.69;79.86
16821;BME280;8527;49.740;6.604;2023-01-29T04:54:53;101081.06;;;-0.51;79.84
16821;BME280;8527;49.740;6.604;2023-01-29T04:59:58;101074.66;;;-0.65;80.50
16821;BME280;8527;49.740;6.604;2023-01-29T05:05:06;101072.66;;;-0.58;79.96
16821;BME280;8527;49.740;6.604;2023-01-29T05:10:10;101078.25;;;-0.47;79.96
16821;BME280;8527;49.740;6.604;2023-01-29T05:15:15;101057.00;;;-0.58;79.29
16821;BME280;8527;49.740;6.604;2023-01-29T05:20:18;101031.59;;;-0.74;79.56
16821;BME280;8527;49.740;6.604;2023-01-29T05:25:23;101028.81;;;-0.69;80.02
16821;BME280;8527;49.740;6.604;2023-01-29T05:30:25;101031.28;;;-0.66;80.48
16821;BME280;8527;49.740;6.604;2023-01-29T05:35:27;101026.25;;;-0.71;81.14
16821;BME280;8527;49.740;6.604;2023-01-29T05:40:29;101020.31;;;-0.74;80.85
16821;BME280;8527;49.740;6.604;2023-01-29T05:45:35;101031.47;;;-0.71;80.86
16821;BME280;8527;49.740;6.604;2023-01-29T05:50:41;101040.38;;;-0.76;80.75
16821;BME280;8527;49.740;6.604;2023-01-29T05:55:39;101042.38;;;-0.83;80.70
16821;BME280;8527;49.740;6.604;2023-01-29T06:00:46;101052.31;;;-0.71;80.27
16821;BME280;8527;49.740;6.604;2023-01-29T06:06:03;101057.66;;;-0.74;80.10
16821;BME280;8527;49.740;6.604;2023-01-29T06:11:07;101054.97;;;-0.72;80.05
16821;BME280;8527;49.740;6.604;2023-01-29T06:16:08;101074.47;;;-0.82;80.27
16821;BME280;8527;49.740;6.604;2023-01-29T06:21:11;101049.34;;;-0.83;80.13
16821;BME280;8527;49.740;6.604;2023-01-29T06:26:12;101052.06;;;-0.87;80.73
16821;BME280;8527;49.740;6.604;2023-01-29T06:31:11;101047.03;;;-0.91;80.52
16821;BME280;8527;49.740;6.604;2023-01-29T06:36:12;101054.25;;;-0.98;80.79
16821;BME280;8527;49.740;6.604;2023-01-29T06:41:11;101046.94;;;-0.88;81.18
16821;BME280;8527;49.740;6.604;2023-01-29T06:46:14;101034.75;;;-0.88;80.72
16821;BME280;8527;49.740;6.604;2023-01-29T06:51:21;101037.63;;;-0.94;81.23
16821;BME280;8527;49.740;6.604;2023-01-29T06:56:23;101034.69;;;-0.86;81.33
16821;BME280;8527;49.740;6.604;2023-01-29T07:01:21;101038.44;;;-0.93;81.38
16821;BME280;8527;49.740;6.604;2023-01-29T07:06:28;101030.00;;;-0.98;81.64
16821;BME280;8527;49.740;6.604;2023-01-29T07:11:27;101043.47;;;-0.89;81.58
16821;BME280;8527;49.740;6.604;2023-01-29T07:16:28;101036.44;;;-0.87;81.31
16821;BME280;8527;49.740;6.604;2023-01-29T07:21:30;101043.59;;;-0.92;80.84
16821;BME280;8527;49.740;6.604;2023-01-29T07:26:28;101062.50;;;-0.87;80.77
16821;BME280;8527;49.740;6.604;2023-01-29T07:31:34;101057.06;;;-0.80;80.59
16821;BME280;8527;49.740;6.604;2023-01-29T07:36:35;101062.03;;;-0.96;80.69
16821;BME280;8527;49.740;6.604;2023-01-29T07:41:34;101067.88;;;-0.91;81.14
16821;BME280;8527;49.740;6.604;2023-01-29T07:46:38;101069.72;;;-0.93;81.03
16821;BME280;8527;49.740;6.604;2023-01-29T07:51:39;101077.56;;;-0.95;81.12
16821;BME280;8527;49.740;6.604;2023-01-29T07:56:37;101086.28;;;-0.96;81.28
16821;BME280;8527;49.740;6.604;2023-01-29T08:01:40;101092.00;;;-0.86;81.02
16821;BME280;8527;49.740;6.604;2023-01-29T08:06:41;101088.84;;;-0.72;79.94
16821;BME280;8527;49.740;6.604;2023-01-29T08:11:42;101086.22;;;-0.50;79.37
16821;BME280;8527;49.740;6.604;2023-01-29T08:16:43;101075.44;;;-0.21;78.97
16821;BME280;8527;49.740;6.604;2023-01-29T08:21:44;101076.78;;;0.29;77.74
16821;BME280;8527;49.740;6.604;2023-01-29T08:26:43;101077.53;;;0.31;77.27
16821;BME280;8527;49.740;6.604;2023-01-29T08:31:42;101078.13;;;0.38;77.64
16821;BME280;8527;49.740;6.604;2023-01-29T08:36:42;101089.97;;;0.45;77.32
16821;BME280;8527;49.740;6.604;2023-01-29T08:41:44;101097.09;;;0.41;77.90
16821;BME280;8527;49.740;6.604;2023-01-29T08:46:49;101107.28;;;0.08;77.21
16821;BME280;8527;49.740;6.604;2023-01-29T08:51:47;101099.56;;;0.05;78.42
16821;BME280;8527;49.740;6.604;2023-01-29T08:56:48;101107.16;;;0.30;78.42
16821;BME280;8527;49.740;6.604;2023-01-29T09:01:47;101101.28;;;0.25;77.06
16821;BME280;8527;49.740;6.604;2023-01-29T09:06:48;101089.06;;;0.46;77.86
16821;BME280;8527;49.740;6.604;2023-01-29T09:11:49;101098.63;;;0.26;77.21
16821;BME280;8527;49.740;6.604;2023-01-29T09:16:50;101096.56;;;0.14;77.48
16821;BME280;8527;49.740;6.604;2023-01-29T09:21:48;101108.28;;;0.24;78.30
16821;BME280;8527;49.740;6.604;2023-01-29T09:26:49;101094.84;;;0.34;77.96
16821;BME280;8527;49.740;6.604;2023-01-29T09:31:48;101088.91;;;0.30;77.51
16821;BME280;8527;49.740;6.604;2023-01-29T09:36:46;101098.06;;;0.20;77.44
16821;BME280;8527;49.740;6.604;2023-01-29T09:41:54;101118.44;;;0.31;77.37
16821;BME280;8527;49.740;6.604;2023-01-29T09:46:56;101114.56;;;0.20;77.39
16821;BME280;8527;49.740;6.604;2023-01-29T09:51:57;101120.38;;;0.27;77.78
16821;BME280;8527;49.740;6.604;2023-01-29T09:57:02;101122.25;;;0.23;77.18
16821;BME280;8527;49.740;6.604;2023-01-29T10:02:09;101115.16;;;0.27;76.87
16821;BME280;8527;49.740;6.604;2023-01-29T10:07:25;101127.84;;;0.35;76.47
16821;BME280;8527;49.740;6.604;2023-01-29T10:12:43;101135.16;;;0.47;76.43
16821;BME280;8527;49.740;6.604;2023-01-29T10:17:59;101132.78;;;0.41;75.03
16821;BME280;8527;49.740;6.604;2023-01-29T10:23:10;101120.25;;;0.49;75.00
16821;BME280;8527;49.740;6.604;2023-01-29T10:28:20;101100.91;;;0.53;75.25
16821;BME280;8527;49.740;6.604;2023-01-29T10:33:25;101097.38;;;0.54;75.03
16821;BME280;8527;49.740;6.604;2023-01-29T10:38:36;101078.31;;;0.72;74.75
16821;BME280;8527;49.740;6.604;2023-01-29T10:43:54;101063.69;;;0.87;74.20
16821;BME280;8527;49.740;6.604;2023-01-29T10:49:02;101067.03;;;0.90;74.04
16821;BME280;8527;49.740;6.604;2023-01-29T10:54:14;101057.56;;;0.88;73.99
16821;BME280;8527;49.740;6.604;2023-01-29T10:59:33;101035.19;;;0.82;74.48
16821;BME280;8527;49.740;6.604;2023-01-29T11:04:36;101036.59;;;0.89;74.52
16821;BME280;8527;49.740;6.604;2023-01-29T11:09:38;101030.19;;;1.32;73.90
16821;BME280;8527;49.740;6.604;2023-01-29T11:14:46;101014.91;;;0.87;73.03
16821;BME280;8527;49.740;6.604;2023-01-29T11:19:51;101011.88;;;1.14;73.21
16821;BME280;8527;49.740;6.604;2023-01-29T11:25:09;101003.97;;;1.33;72.78
16821;BME280;8527;49.740;6.604;2023-01-29T11:30:22;100997.25;;;1.10;73.02
16821;BME280;8527;49.740;6.604;2023-01-29T11:35:23;101001.41;;;0.96;73.39
16821;BME280;8527;49.740;6.604;2023-01-29T11:40:41;100984.41;;;1.40;72.98
16821;BME280;8527;49.740;6.604;2023-01-29T11:45:43;100972.09;;;1.76;71.04
16821;BME280;8527;49.740;6.604;2023-01-29T11:50:43;100967.00;;;1.57;70.54
16821;BME280;8527;49.740;6.604;2023-01-29T11:55:48;100971.78;;;1.49;71.45
16821;BME280;8527;49.740;6.604;2023-01-29T12:00:50;100967.00;;;1.91;70.32
16821;BME280;8527;49.740;6.604;2023-01-29T12:05:57;100957.06;;;2.30;70.57
16821;BME280;8527;49.740;6.604;2023-01-29T12:11:07;100959.16;;;2.23;69.62
16821;BME280;8527;49.740;6.604;2023-01-29T12:16:23;100947.69;;;2.25;69.10
16821;BME280;8527;49.740;6.604;2023-01-29T12:21:31;100943.91;;;2.31;68.63
16821;BME280;8527;49.740;6.604;2023-01-29T12:26:31;100940.25;;;2.18;69.00
16821;BME280;8527;49.740;6.604;2023-01-29T12:31:41;100923.78;;;2.78;68.05
16821;BME280;8527;49.740;6.604;2023-01-29T12:36:45;100904.47;;;2.95;68.38
16821;BME280;8527;49.740;6.604;2023-01-29T12:41:55;100895.88;;;3.22;67.35
16821;BME280;8527;49.740;6.604;2023-01-29T12:47:02;100891.19;;;3.28;66.71
16821;BME280;8527;49.740;6.604;2023-01-29T12:52:08;100874.50;;;3.00;67.16
16821;BME280;8527;49.740;6.604;2023-01-29T12:57:19;100881.59;;;2.83;66.97
16821;BME280;8527;49.740;6.604;2023-01-29T13:02:33;100874.03;;;2.62;67.50
16821;BME280;8527;49.740;6.604;2023-01-29T13:07:36;100871.63;;;2.74;67.68
16821;BME280;8527;49.740;6.604;2023-01-29T13:12:49;100858.81;;;2.69;66.24
16821;BME280;8527;49.740;6.604;2023-01-29T13:17:57;100861.28;;;2.72;67.41
16821;BME280;8527;49.740;6.604;2023-01-29T13:23:02;100864.75;;;3.02;67.11
16821;BME280;8527;49.740;6.604;2023-01-29T13:28:03;100858.28;;;2.78;67.10
16821;BME280;8527;49.740;6.604;2023-01-29T13:33:05;100852.13;;;2.94;66.59
16821;BME280;8527;49.740;6.604;2023-01-29T13:38:22;100859.16;;;3.08;66.42
16821;BME280;8527;49.740;6.604;2023-01-29T13:43:22;100848.97;;;3.03;66.60
16821;BME280;8527;49.740;6.604;2023-01-29T13:48:25;100841.56;;;3.10;66.50
16821;BME280;8527;49.740;6.604;2023-01-29T13:53:37;100839.97;;;3.22;65.81
16821;BME280;8527;49.740;6.604;2023-01-29T13:58:55;100823.47;;;3.05;66.40
16821;BME280;8527;49.740;6.604;2023-01-29T14:03:57;100815.63;;;3.05;66.51
16821;BME280;8527;49.740;6.604;2023-01-29T14:08:58;100813.84;;;3.06;66.84
16821;BME280;8527;49.740;6.604;2023-01-29T14:13:57;100795.59;;;2.90;66.82
16821;BME280;8527;49.740;6.604;2023-01-29T14:18:59;100791.38;;;3.02;66.95
16821;BME280;8527;49.740;6.604;2023-01-29T14:24:09;100786.19;;;2.57;67.57
16821;BME280;8527;49.740;6.604;2023-01-29T14:29:23;100786.84;;;2.75;68.59
16821;BME280;8527;49.740;6.604;2023-01-29T14:34:30;100787.16;;;2.85;67.78
16821;BME280;8527;49.740;6.604;2023-01-29T14:39:34;100780.00;;;2.58;68.65
16821;BME280;8527;49.740;6.604;2023-01-29T14:44:56;100768.41;;;2.47;68.77
16821;BME280;8527;49.740;6.604;2023-01-29T14:49:59;100768.41;;;2.47;69.51
16821;BME280;8527;49.740;6.604;2023-01-29T14:55:02;100766.63;;;2.48;69.61
16821;BME280;8527;49.740;6.604;2023-01-29T15:00:03;100760.47;;;2.18;69.90
16821;BME280;8527;49.740;6.604;2023-01-29T15:05:10;100748.44;;;2.00;70.38
16821;BME280;8527;49.740;6.604;2023-01-29T15:10:16;100754.47;;;1.86;71.56
16821;BME280;8527;49.740;6.604;2023-01-29T15:15:17;100750.84;;;1.88;71.90
16821;BME280;8527;49.740;6.604;2023-01-29T15:20:30;100739.72;;;1.68;72.33
16821;BME280;8527;49.740;6.604;2023-01-29T15:25:35;100739.06;;;1.65;72.77
16821;BME280;8527;49.740;6.604;2023-01-29T15:30:37;100743.94;;;1.55;73.28
16821;BME280;8527;49.740;6.604;2023-01-29T15:35:41;100750.97;;;1.54;73.37
16821;BME280;8527;49.740;6.604;2023-01-29T15:40:40;100749.53;;;1.49;73.86
16821;BME280;8527;49.740;6.604;2023-01-29T15:45:39;100741.00;;;1.45;75.60
16821;BME280;8527;49.740;6.604;2023-01-29T15:50:41;100741.09;;;1.28;76.71
16821;BME280;8527;49.740;6.604;2023-01-29T15:55:40;100728.59;;;1.17;77.45
16821;BME280;8527;49.740;6.604;2023-01-29T16:00:39;100734.66;;;1.01;77.57
16821;BME280;8527;49.740;6.604;2023-01-29T16:05:40;100725.72;;;1.05;77.25
16821;BME280;8527;49.740;6.604;2023-01-29T16:10:40;100723.94;;;0.90;78.42
16821;BME280;8527;49.740;6.604;2023-01-29T16:15:53;100742.56;;;0.83;78.21
16821;BME280;8527;49.740;6.604;2023-01-29T16:20:56;100755.16;;;0.75;78.52
16821;BME280;8527;49.740;6.604;2023-01-29T16:26:00;100760.69;;;0.69;78.84
16821;BME280;8527;49.740;6.604;2023-01-29T16:31:02;100758.88;;;0.53;79.00
16821;BME280;8527;49.740;6.604;2023-01-29T16:36:09;100759.09;;;0.49;79.14
16821;BME280;8527;49.740;6.604;2023-01-29T16:41:26;100760.75;;;0.34;79.39
16821;BME280;8527;49.740;6.604;2023-01-29T16:46:34;100775.00;;;0.26;80.32
16821;BME280;8527;49.740;6.604;2023-01-29T16:51:38;100780.38;;;0.23;80.10
16821;BME280;8527;49.740;6.604;2023-01-29T16:56:44;100787.56;;;0.18;80.13
16821;BME280;8527;49.740;6.604;2023-01-29T17:01:43;100787.63;;;-0.01;80.73
16821;BME280;8527;49.740;6.604;2023-01-29T17:06:47;100786.81;;;-0.02;80.77
16821;BME280;8527;49.740;6.604;2023-01-29T17:11:55;100793.72;;;-0.01;80.35
16821;BME280;8527;49.740;6.604;2023-01-29T17:17:01;100800.38;;;-0.12;81.02
16821;BME280;8527;49.740;6.604;2023-01-29T17:22:05;100808.25;;;-0.14;81.89
16821;BME280;8527;49.740;6.604;2023-01-29T17:27:16;100804.81;;;-0.34;81.72
16821;BME280;8527;49.740;6.604;2023-01-29T17:32:16;100800.66;;;-0.38;82.27
16821;BME280;8527;49.740;6.604;2023-01-29T17:37:19;100804.75;;;-0.51;82.34
16821;BME280;8527;49.740;6.604;2023-01-29T17:42:24;100811.59;;;-0.49;83.00
16821;BME280;8527;49.740;6.604;2023-01-29T17:47:23;100816.66;;;-0.65;83.24
16821;BME280;8527;49.740;6.604;2023-01-29T17:52:24;100814.31;;;-0.71;83.61
16821;BME280;8527;49.740;6.604;2023-01-29T17:57:26;100813.31;;;-0.88;84.62
16821;BME280;8527;49.740;6.604;2023-01-29T18:02:24;100800.50;;;-0.92;85.78
16821;BME280;8527;49.740;6.604;2023-01-29T18:07:25;100807.41;;;-0.91;85.94
16821;BME280;8527;49.740;6.604;2023-01-29T18:12:31;100795.03;;;-0.86;85.83
16821;BME280;8527;49.740;6.604;2023-01-29T18:17:29;100796.88;;;-0.88;85.95
16821;BME280;8527;49.740;6.604;2023-01-29T18:22:33;100793.41;;;-0.89;86.25
16821;BME280;8527;49.740;6.604;2023-01-29T18:27:32;100786.72;;;-0.75;85.95
16821;BME280;8527;49.740;6.604;2023-01-29T18:32:34;100786.22;;;-0.64;84.89
16821;BME280;8527;49.740;6.604;2023-01-29T18:37:35;100799.19;;;-0.63;85.41
16821;BME280;8527;49.740;6.604;2023-01-29T18:42:37;100787.66;;;-0.57;86.06
16821;BME280;8527;49.740;6.604;2023-01-29T18:47:46;100776.09;;;-0.51;85.69
16821;BME280;8527;49.740;6.604;2023-01-29T18:52:47;100771.59;;;-0.48;85.81
16821;BME280;8527;49.740;6.604;2023-01-29T18:57:46;100764.59;;;-0.47;86.13
16821;BME280;8527;49.740;6.604;2023-01-29T19:02:44;100759.31;;;-0.46;85.99
16821;BME280;8527;49.740;6.604;2023-01-29T19:07:43;100753.69;;;-0.36;85.80
16821;BME280;8527;49.740;6.604;2023-01-29T19:12:44;100754.13;;;-0.28;85.27
16821;BME280;8527;49.740;6.604;2023-01-29T19:17:45;100753.09;;;-0.24;85.06
16821;BME280;8527;49.740;6.604;2023-01-29T19:22:44;100756.25;;;-0.17;84.55
16821;BME280;8527;49.740;6.604;2023-01-29T19:27:45;100757.78;;;-0.13;84.47
16821;BME280;8527;49.740;6.604;2023-01-29T19:32:44;100751.03;;;-0.17;84.13
16821;BME280;8527;49.740;6.604;2023-01-29T19:37:45;100747.34;;;-0.13;84.02
16821;BME280;8527;49.740;6.604;2023-01-29T19:42:51;100753.56;;;-0.16;84.73
16821;BME280;8527;49.740;6.604;2023-01-29T19:47:51;100740.38;;;-0.12;84.41
16821;BME280;8527;49.740;6.604;2023-01-29T19:52:50;100738.53;;;-0.10;84.56
16821;BME280;8527;49.740;6.604;2023-01-29T19:57:53;100738.44;;;-0.09;84.28
16821;BME280;8527;49.740;6.604;2023-01-29T20:02:53;100734.00;;;-0.07;84.40
16821;BME280;8527;49.740;6.604;2023-01-29T20:07:56;100713.13;;;-0.07;84.37
16821;BME280;8527;49.740;6.604;2023-01-29T20:12:58;100716.53;;;-0.05;84.25
16821;BME280;8527;49.740;6.604;2023-01-29T20:17:57;100703.50;;;-0.05;84.13
16821;BME280;8527;49.740;6.604;2023-01-29T20:22:56;100697.94;;;0.02;84.63
16821;BME280;8527;49.740;6.604;2023-01-29T20:27:58;100695.28;;;0.03;84.50
16821;BME280;8527;49.740;6.604;2023-01-29T20:32:59;100691.59;;;0.07;84.84
16821;BME280;8527;49.740;6.604;2023-01-29T20:37:58;100689.84;;;0.08;84.69
16821;BME280;8527;49.740;6.604;2023-01-29T20:42:59;100679.22;;;0.11;84.68
16821;BME280;8527;49.740;6.604;2023-01-29T20:47:58;100676.47;;;0.14;84.57
16821;BME280;8527;49.740;6.604;2023-01-29T20:52:59;100673.09;;;0.12;84.85
16821;BME280;8527;49.740;6.604;2023-01-29T20:58:00;100662.66;;;0.12;84.49
16821;BME280;8527;49.740;6.604;2023-01-29T21:03:04;100670.94;;;0.20;84.77
16821;BME280;8527;49.740;6.604;2023-01-29T21:08:02;100664.88;;;0.20;84.95
16821;BME280;8527;49.740;6.604;2023-01-29T21:13:03;100664.88;;;0.20;85.00
16821;BME280;8527;49.740;6.604;2023-01-29T21:18:05;100665.72;;;0.20;84.98
16821;BME280;8527;49.740;6.604;2023-01-29T21:23:03;100655.88;;;0.25;85.00
16821;BME280;8527;49.740;6.604;2023-01-29T21:28:04;100646.38;;;0.24;85.21
16821;BME280;8527;49.740;6.604;2023-01-29T21:33:08;100638.47;;;0.26;85.37
16821;BME280;8527;49.740;6.604;2023-01-29T21:38:07;100629.63;;;0.28;85.51
16821;BME280;8527;49.740;6.604;2023-01-29T21:43:11;100623.25;;;0.34;85.71
16821;BME280;8527;49.740;6.604;2023-01-29T21:48:10;100617.19;;;0.34;85.82
16821;BME280;8527;49.740;6.604;2023-01-29T21:53:11;100611.03;;;0.35;85.81
16821;BME280;8527;49.740;6.604;2023-01-29T21:58:12;100602.53;;;0.31;86.07
16821;BME280;8527;49.740;6.604;2023-01-29T22:03:10;100598.91;;;0.34;86.17
16821;BME280;8527;49.740;6.604;2023-01-29T22:08:08;100587.38;;;0.38;86.12
16821;BME280;8527;49.740;6.604;2023-01-29T22:13:12;100604.66;;;0.40;86.26
16821;BME280;8527;49.740;6.604;2023-01-29T22:18:11;100610.94;;;0.36;86.78
16821;BME280;8527;49.740;6.604;2023-01-29T22:23:09;100606.59;;;0.37;87.01
16821;BME280;8527;49.740;6.604;2023-01-29T22:28:08;100624.00;;;0.36;87.11
16821;BME280;8527;49.740;6.604;2023-01-29T22:33:09;100607.41;;;0.37;87.60
16821;BME280;8527;49.740;6.604;2023-01-29T22:38:07;100581.16;;;0.40;87.75
16821;BME280;8527;49.740;6.604;2023-01-29T22:43:08;100587.47;;;0.36;88.48
16821;BME280;8527;49.740;6.604;2023-01-29T22:48:10;100572.47;;;0.40;88.33
16821;BME280;8527;49.740;6.604;2023-01-29T22:53:09;100568.00;;;0.42;88.79
16821;BME280;8527;49.740;6.604;2023-01-29T22:58:10;100576.88;;;0.39;89.05
16821;BME280;8527;49.740;6.604;2023-01-29T23:03:11;100564.88;;;0.35;89.57
16821;BME280;8527;49.740;6.604;2023-01-29T23:08:09;100558.69;;;0.38;89.66
16821;BME280;8527;49.740;6.604;2023-01-29T23:13:11;100552.78;;;0.34;90.06
16821;BME280;8527;49.740;6.604;2023-01-29T23:18:12;100574.56;;;0.33;90.53
16821;BME280;8527;49.740;6.604;2023-01-29T23:23:10;100581.91;;;0.43;90.09
16821;BME280;8527;49.740;6.604;2023-01-29T23:28:09;100583.03;;;0.38;90.42
16821;BME280;8527;49.740;6.604;2023-01-29T23:33:07;100587.16;;;0.43;90.60
16821;BME280;8527;49.740;6.604;2023-01-29T23:38:08;100579.31;;;0.43;91.10
16821;BME280;8527;49.740;6.604;2023-01-29T23:43:10;100577.69;;;0.40;91.25
16821;BME280;8527;49.740;6.604;2023-01-29T23:48:08;100584.59;;;0.41;91.69
16821;BME280;8527;49.740;6.604;2023-01-29T23:53:09;100591.50;;;0.42;92.45
16821;BME280;8527;49.740;6.604;2023-01-29T23:58:08;100572.41;;;0.41;93.23
